createdAt,value
2023-02-11T00:00:49.215Z,2.07
2023-02-11T00:05:37.166Z,2.13
2023-02-11T00:07:23.060Z,2.07
2023-02-11T00:09:01.948Z,2.09
2023-02-11T00:14:04.278Z,2.15
2023-02-11T00:15:37.571Z,2.13
2023-02-11T00:17:23.786Z,2.14
2023-02-11T00:19:37.057Z,2.20
2023-02-11T00:21:23.136Z,2.17
2023-02-11T00:22:59.949Z,2.18
2023-02-11T00:24:36.757Z,2.23
2023-02-11T00:26:07.242Z,2.21
2023-02-11T00:27:34.362Z,2.26
2023-02-11T00:28:58.619Z,2.29
2023-02-11T00:30:32.477Z,2.31
2023-02-11T00:32:09.086Z,2.31
2023-02-11T00:33:32.560Z,2.29
2023-02-11T00:34:57.992Z,2.32
2023-02-11T00:36:27.384Z,2.36
2023-02-11T00:37:56.779Z,2.26
2023-02-11T00:39:21.662Z,2.30
2023-02-11T00:40:44.284Z,2.37
2023-02-11T00:42:19.645Z,2.30
2023-02-11T00:43:51.090Z,2.30
2023-02-11T00:45:31.514Z,2.29
2023-02-11T00:47:09.504Z,2.35
2023-02-11T00:48:34.736Z,2.33
2023-02-11T00:50:05.430Z,2.31
2023-02-11T00:51:30.812Z,2.37
2023-02-11T00:52:53.256Z,2.39
2023-02-11T00:54:20.004Z,2.35
2023-02-11T00:55:42.833Z,2.41
2023-02-11T00:57:21.804Z,2.41
2023-02-11T00:58:47.465Z,2.41
2023-02-11T01:00:13.254Z,2.42
2023-02-11T01:01:36.098Z,2.41
2023-02-11T01:02:59.256Z,2.42
2023-02-11T01:04:21.905Z,2.40
2023-02-11T01:05:46.396Z,2.39
2023-02-11T01:07:08.878Z,2.42
2023-02-11T01:08:33.372Z,2.40
2023-02-11T01:09:57.170Z,2.41
2023-02-11T01:11:21.634Z,2.42
2023-02-11T01:12:44.542Z,2.40
2023-02-11T01:14:06.185Z,2.39
2023-02-11T01:15:32.235Z,2.35
2023-02-11T01:16:57.304Z,2.39
2023-02-11T01:18:22.800Z,2.38
2023-02-11T01:19:45.137Z,2.34
2023-02-11T01:21:10.197Z,2.33
2023-02-11T01:22:39.653Z,2.30
2023-02-11T01:24:02.405Z,2.30
2023-02-11T01:25:23.881Z,2.21
2023-02-11T01:26:46.424Z,2.23
2023-02-11T01:28:20.292Z,2.24
2023-02-11T01:29:43.066Z,2.22
2023-02-11T01:31:07.003Z,2.20
2023-02-11T01:32:31.943Z,2.18
2023-02-11T01:33:55.892Z,2.11
2023-02-11T01:35:20.551Z,2.15
2023-02-11T01:36:47.313Z,2.13
2023-02-11T01:38:17.716Z,2.10
2023-02-11T01:39:42.702Z,2.08
2023-02-11T01:41:07.723Z,1.99
2023-02-11T01:42:34.466Z,2.02
2023-02-11T01:43:57.178Z,2.02
2023-02-11T01:45:50.068Z,2.06
2023-02-11T01:47:14.642Z,2.04
2023-02-11T01:48:42.582Z,2.03
2023-02-11T01:50:06.969Z,2.06
2023-02-11T01:51:35.029Z,2.08
2023-02-11T01:53:19.260Z,2.09
2023-02-11T01:55:03.586Z,2.10
2023-02-11T01:56:46.393Z,2.12
2023-02-11T01:58:09.027Z,2.10
2023-02-11T01:59:34.855Z,2.13
2023-02-11T02:01:03.262Z,2.14
2023-02-11T02:02:31.453Z,2.15
2023-02-11T02:04:00.703Z,2.19
2023-02-11T02:05:35.615Z,2.14
2023-02-11T02:07:03.839Z,2.20
2023-02-11T02:08:32.327Z,2.21
2023-02-11T02:10:06.049Z,2.23
2023-02-11T02:11:27.769Z,2.26
2023-02-11T02:12:50.100Z,2.24
2023-02-11T02:14:13.796Z,2.27
2023-02-11T02:15:38.040Z,2.29
2023-02-11T02:16:59.436Z,2.28
2023-02-11T02:18:44.353Z,2.32
2023-02-11T02:20:39.505Z,2.33
2023-02-11T02:22:44.008Z,2.33
2023-02-11T02:24:44.435Z,2.35
2023-02-11T02:26:42.690Z,2.38
2023-02-11T02:28:22.654Z,2.36
2023-02-11T02:30:05.107Z,2.41
2023-02-11T02:31:44.730Z,2.43
2023-02-11T02:33:23.664Z,2.45
2023-02-11T02:34:51.717Z,2.39
2023-02-11T02:36:19.934Z,2.48
2023-02-11T02:37:47.181Z,2.48
2023-02-11T02:39:13.425Z,2.48
2023-02-11T02:40:45.059Z,2.55
2023-02-11T02:42:14.766Z,2.57
2023-02-11T02:43:41.502Z,2.55
2023-02-11T02:45:04.290Z,2.57
2023-02-11T02:46:28.635Z,2.65
2023-02-11T02:47:51.261Z,2.63
2023-02-11T02:49:17.163Z,2.70
2023-02-11T02:50:44.873Z,2.73
2023-02-11T02:52:23.055Z,2.73
2023-02-11T02:53:59.314Z,2.79
2023-02-11T02:55:38.414Z,2.77
2023-02-11T02:57:11.731Z,2.75
2023-02-11T02:59:07.834Z,2.86
2023-02-11T03:00:44.294Z,2.85
2023-02-11T03:02:15.899Z,2.88
2023-02-11T03:03:55.581Z,2.88
2023-02-11T03:05:34.745Z,2.89
2023-02-11T03:07:06.216Z,2.81
2023-02-11T03:08:34.724Z,2.90
2023-02-11T03:10:05.617Z,2.88
2023-02-11T03:11:33.709Z,2.91
2023-02-11T03:12:58.530Z,2.92
2023-02-11T03:14:23.668Z,2.90
2023-02-11T03:15:46.918Z,2.93
2023-02-11T03:17:13.002Z,2.94
2023-02-11T03:18:37.613Z,2.90
2023-02-11T03:20:01.700Z,2.94
2023-02-11T03:21:28.021Z,2.93
2023-02-11T03:22:55.205Z,2.94
2023-02-11T03:24:23.165Z,2.90
2023-02-11T03:25:50.828Z,2.91
2023-02-11T03:27:22.075Z,2.93
2023-02-11T03:28:49.970Z,2.93
2023-02-11T03:30:17.886Z,2.90
2023-02-11T03:31:47.101Z,2.92
2023-02-11T03:33:16.011Z,2.90
2023-02-11T03:34:45.805Z,2.91
2023-02-11T03:36:12.209Z,2.86
2023-02-11T03:37:40.994Z,2.85
2023-02-11T03:39:05.796Z,2.92
2023-02-11T03:40:32.186Z,2.93
2023-02-11T03:42:00.671Z,2.95
2023-02-11T03:43:27.706Z,2.95
2023-02-11T03:44:57.061Z,2.95
2023-02-11T03:46:25.376Z,2.97
2023-02-11T03:47:53.367Z,2.97
2023-02-11T03:49:18.324Z,2.97
2023-02-11T03:50:42.759Z,2.98
2023-02-11T03:52:06.421Z,3.01
2023-02-11T03:53:32.754Z,3.01
2023-02-11T03:54:59.224Z,3.05
2023-02-11T03:56:28.307Z,3.04
2023-02-11T03:57:52.887Z,3.06
2023-02-11T03:59:16.344Z,3.09
2023-02-11T04:00:43.521Z,3.11
2023-02-11T04:02:06.103Z,3.06
2023-02-11T04:03:27.643Z,3.16
2023-02-11T04:04:53.211Z,3.17
2023-02-11T04:06:15.659Z,3.18
2023-02-11T04:07:37.355Z,3.18
2023-02-11T04:09:01.745Z,3.21
2023-02-11T04:10:24.412Z,3.22
2023-02-11T04:11:45.537Z,3.21
2023-02-11T04:13:10.445Z,3.23
2023-02-11T04:14:31.711Z,3.23
2023-02-11T04:15:54.703Z,3.25
2023-02-11T04:17:16.300Z,3.22
2023-02-11T04:18:38.836Z,3.24
2023-02-11T04:20:00.104Z,3.17
2023-02-11T04:21:22.829Z,3.20
2023-02-11T04:22:44.039Z,3.24
2023-02-11T04:24:08.179Z,3.24
2023-02-11T04:25:29.598Z,3.23
2023-02-11T04:26:54.094Z,3.23
2023-02-11T04:28:15.614Z,3.21
2023-02-11T04:29:38.241Z,3.24
2023-02-11T04:31:06.706Z,3.18
2023-02-11T04:32:29.457Z,3.18
2023-02-11T04:33:53.411Z,3.22
2023-02-11T04:35:15.664Z,3.22
2023-02-11T04:36:38.220Z,3.18
2023-02-11T04:38:02.706Z,3.20
2023-02-11T04:39:27.402Z,3.21
2023-02-11T04:40:49.934Z,3.22
2023-02-11T04:42:11.612Z,3.20
2023-02-11T04:43:39.471Z,3.21
2023-02-11T04:45:01.003Z,3.23
2023-02-11T04:46:23.452Z,3.23
2023-02-11T04:47:47.314Z,3.23
2023-02-11T04:49:09.972Z,3.19
2023-02-11T04:50:32.852Z,3.23
2023-02-11T04:51:58.045Z,3.24
2023-02-11T04:53:20.437Z,3.24
2023-02-11T04:54:44.190Z,3.21
2023-02-11T04:56:07.252Z,3.25
2023-02-11T04:57:55.443Z,3.24
2023-02-11T04:59:18.154Z,3.22
2023-02-11T05:00:43.245Z,3.23
2023-02-11T05:02:20.658Z,3.20
2023-02-11T05:04:33.546Z,3.21
2023-02-11T05:05:56.462Z,3.20
2023-02-11T05:07:28.203Z,3.17
2023-02-11T05:08:50.868Z,3.19
2023-02-11T05:10:15.873Z,3.22
2023-02-11T05:11:39.531Z,3.17
2023-02-11T05:13:08.601Z,3.19
2023-02-11T05:14:31.876Z,3.17
2023-02-11T05:15:53.659Z,3.23
2023-02-11T05:17:16.259Z,3.24
2023-02-11T05:18:38.261Z,3.24
2023-02-11T05:20:03.716Z,3.26
2023-02-11T05:21:25.199Z,3.27
2023-02-11T05:22:48.208Z,3.26
2023-02-11T05:24:11.067Z,3.28
2023-02-11T05:25:35.338Z,3.28
2023-02-11T05:26:58.632Z,3.29
2023-02-11T05:28:21.018Z,3.30
2023-02-11T05:29:42.611Z,3.28
2023-02-11T05:31:05.468Z,3.31
2023-02-11T05:32:28.104Z,3.32
2023-02-11T05:33:50.859Z,3.32
2023-02-11T05:35:12.185Z,3.31
2023-02-11T05:36:34.451Z,3.31
2023-02-11T05:37:58.352Z,3.37
2023-02-11T05:39:20.939Z,3.36
2023-02-11T05:40:44.860Z,3.39
2023-02-11T05:42:07.499Z,3.38
2023-02-11T05:43:32.019Z,3.33
2023-02-11T05:44:54.405Z,3.41
2023-02-11T05:46:18.682Z,3.41
2023-02-11T05:47:41.154Z,3.40
2023-02-11T05:49:04.301Z,3.40
2023-02-11T05:50:26.482Z,3.40
2023-02-11T05:51:48.167Z,3.45
2023-02-11T05:53:10.840Z,3.47
2023-02-11T05:54:33.398Z,3.42
2023-02-11T05:55:56.533Z,3.48
2023-02-11T05:57:20.075Z,3.42
2023-02-11T05:58:43.875Z,3.44
2023-02-11T06:00:08.125Z,3.49
2023-02-11T06:01:34.760Z,3.51
2023-02-11T06:02:57.281Z,3.50
2023-02-11T06:04:19.869Z,3.53
2023-02-11T06:05:42.812Z,3.52
2023-02-11T06:07:07.528Z,3.52
2023-02-11T06:08:31.428Z,3.51
2023-02-11T06:09:54.200Z,3.48
2023-02-11T06:11:20.593Z,3.51
2023-02-11T06:12:45.205Z,3.51
2023-02-11T06:14:10.114Z,3.53
2023-02-11T06:15:31.928Z,3.53
2023-02-11T06:16:55.612Z,3.59
2023-02-11T06:18:27.248Z,3.59
2023-02-11T06:19:51.154Z,3.59
2023-02-11T06:21:13.872Z,3.56
2023-02-11T06:22:38.306Z,3.60
2023-02-11T06:24:05.701Z,3.58
2023-02-11T06:25:28.325Z,3.58
2023-02-11T06:26:52.734Z,3.62
2023-02-11T06:28:15.516Z,3.64
2023-02-11T06:29:37.157Z,3.65
2023-02-11T06:31:11.004Z,3.64
2023-02-11T06:32:44.908Z,3.58
2023-02-11T06:34:09.519Z,3.66
2023-02-11T06:35:31.626Z,3.67
2023-02-11T06:36:55.934Z,3.65
2023-02-11T06:38:19.137Z,3.70
2023-02-11T06:39:41.480Z,3.72
2023-02-11T06:41:06.793Z,3.65
2023-02-11T06:42:31.573Z,3.73
2023-02-11T06:43:55.031Z,3.70
2023-02-11T06:45:17.847Z,3.77
2023-02-11T06:46:40.422Z,3.80
2023-02-11T06:48:02.772Z,3.79
2023-02-11T06:49:25.371Z,3.84
2023-02-11T06:50:47.829Z,3.83
2023-02-11T06:52:12.446Z,3.89
2023-02-11T06:53:39.508Z,3.85
2023-02-11T06:55:02.861Z,3.94
2023-02-11T06:56:29.700Z,3.93
2023-02-11T06:57:54.611Z,3.96
2023-02-11T06:59:28.609Z,3.99
2023-02-11T07:00:52.600Z,3.96
2023-02-11T07:02:15.590Z,4.00
2023-02-11T07:03:44.357Z,4.07
2023-02-11T07:05:19.445Z,4.07
2023-02-11T07:06:52.198Z,4.14
2023-02-11T07:08:19.692Z,4.14
2023-02-11T07:09:53.864Z,4.21
2023-02-11T07:11:27.738Z,4.23
2023-02-11T07:12:49.600Z,4.22
2023-02-11T07:14:18.124Z,4.26
2023-02-11T07:15:53.122Z,4.33
2023-02-11T07:17:16.162Z,4.37
2023-02-11T07:20:51.026Z,4.49
2023-02-11T07:22:18.345Z,4.58
2023-02-11T07:23:50.212Z,4.60
2023-02-11T07:25:16.011Z,4.58
2023-02-11T07:26:42.015Z,4.64
2023-02-11T07:28:07.087Z,4.69
2023-02-11T07:29:54.531Z,4.66
2023-02-11T07:31:30.340Z,4.69
2023-02-11T07:33:06.047Z,4.80
2023-02-11T07:34:35.184Z,4.78
2023-02-11T07:36:24.905Z,4.82
2023-02-11T07:38:03.039Z,4.86
2023-02-11T07:39:36.409Z,4.91
2023-02-11T07:41:03.024Z,4.98
2023-02-11T07:44:37.216Z,4.99
2023-02-11T07:46:18.500Z,5.06
2023-02-11T07:47:47.842Z,5.08
2023-02-11T07:49:13.031Z,5.09
2023-02-11T07:50:37.632Z,5.11
2023-02-11T07:52:14.981Z,5.13
2023-02-11T07:53:44.563Z,5.14
2023-02-11T07:55:18.533Z,5.15
2023-02-11T07:56:43.792Z,5.21
2023-02-11T07:58:08.754Z,5.13
2023-02-11T07:59:31.538Z,5.23
2023-02-11T08:01:02.865Z,5.20
2023-02-11T08:02:58.034Z,5.18
2023-02-11T08:04:51.265Z,5.26
2023-02-11T08:06:43.844Z,5.20
2023-02-11T08:08:57.291Z,5.30
2023-02-11T08:10:50.222Z,5.28
2023-02-11T08:12:15.457Z,5.27
2023-02-11T08:13:41.251Z,5.30
2023-02-11T08:15:13.271Z,5.35
2023-02-11T08:16:46.578Z,5.28
2023-02-11T08:18:08.927Z,5.33
2023-02-11T08:19:35.343Z,5.34
2023-02-11T08:20:58.234Z,5.33
2023-02-11T08:22:28.441Z,5.34
2023-02-11T08:23:54.127Z,5.28
2023-02-11T08:25:16.835Z,5.31
2023-02-11T08:26:42.735Z,5.39
2023-02-11T08:28:06.946Z,5.34
2023-02-11T08:29:38.340Z,5.38
2023-02-11T08:31:14.902Z,5.32
2023-02-11T08:32:39.693Z,5.30
2023-02-11T08:34:02.626Z,5.34
2023-02-11T08:35:26.342Z,5.31
2023-02-11T08:36:50.346Z,5.27
2023-02-11T08:38:13.138Z,5.30
2023-02-11T08:39:44.880Z,5.33
2023-02-11T08:41:54.288Z,5.28
2023-02-11T08:43:19.265Z,5.33
2023-02-11T08:44:48.764Z,5.27
2023-02-11T08:46:48.134Z,5.32
2023-02-11T08:48:13.518Z,5.37
2023-02-11T08:49:43.102Z,5.39
2023-02-11T08:53:07.303Z,5.45
2023-02-11T08:54:32.509Z,5.47
2023-02-11T08:56:17.247Z,5.53
2023-02-11T08:58:02.733Z,5.51
2023-02-11T08:59:25.320Z,5.57
2023-02-11T09:01:51.122Z,5.58
2023-02-11T09:06:51.946Z,5.63
2023-02-11T09:08:34.110Z,5.65
2023-02-11T09:13:11.173Z,5.98
2023-02-11T09:15:05.969Z,6.17
2023-02-11T09:16:59.757Z,6.31
2023-02-11T09:18:31.645Z,6.41
2023-02-11T09:20:32.051Z,6.44
2023-02-11T09:22:53.370Z,6.42
2023-02-11T09:24:28.130Z,6.43
2023-02-11T09:26:06.368Z,6.50
2023-02-11T09:27:52.755Z,6.57
2023-02-11T09:29:26.351Z,6.64
2023-02-11T09:31:02.277Z,6.65
2023-02-11T09:33:10.789Z,6.70
2023-02-11T09:37:29.665Z,6.89
2023-02-11T09:39:08.008Z,7.04
2023-02-11T09:41:09.085Z,7.06
2023-02-11T09:43:04.229Z,7.29
2023-02-11T09:45:07.508Z,7.34
2023-02-11T09:46:41.272Z,7.43
2023-02-11T09:48:25.350Z,7.60
2023-02-11T09:51:03.304Z,7.66
2023-02-11T09:52:54.798Z,7.80
2023-02-11T09:54:38.703Z,7.94
2023-02-11T09:57:03.817Z,8.09
2023-02-11T09:58:38.020Z,8.23
2023-02-11T10:01:08.039Z,8.32
2023-02-11T10:03:08.520Z,8.37
2023-02-11T10:08:39.042Z,8.30
2023-02-11T10:10:34.014Z,8.28
2023-02-11T10:12:43.981Z,8.15
2023-02-11T10:14:29.745Z,8.05
2023-02-11T10:16:13.965Z,8.02
2023-02-11T10:18:26.602Z,7.90
2023-02-11T10:20:31.141Z,7.90
2023-02-11T10:22:16.497Z,7.78
2023-02-11T10:23:47.768Z,7.76
2023-02-11T10:25:50.610Z,7.74
2023-02-11T10:30:25.463Z,7.76
2023-02-11T10:31:58.418Z,7.86
2023-02-11T10:34:49.415Z,7.94
2023-02-11T10:37:09.291Z,8.01
2023-02-11T10:38:59.143Z,8.05
2023-02-11T10:40:36.544Z,8.28
2023-02-11T10:42:09.728Z,8.39
2023-02-11T10:43:56.141Z,8.41
2023-02-11T10:45:43.516Z,8.35
2023-02-11T10:47:39.263Z,8.36
2023-02-11T10:49:11.220Z,8.34
2023-02-11T10:50:46.009Z,8.32
2023-02-11T10:52:42.657Z,8.28
2023-02-11T10:54:29.779Z,8.25
2023-02-11T10:56:13.831Z,8.22
2023-02-11T10:57:40.613Z,8.13
2023-02-11T10:59:27.713Z,8.17
2023-02-11T11:01:04.929Z,8.15
2023-02-11T11:02:44.616Z,8.07
2023-02-11T11:06:03.808Z,7.90
2023-02-11T11:07:59.987Z,7.87
2023-02-11T11:09:39.095Z,7.77
2023-02-11T11:11:13.463Z,7.77
2023-02-11T11:12:49.128Z,7.69
2023-02-11T11:14:31.760Z,7.67
2023-02-11T11:18:25.548Z,7.55
2023-02-11T11:20:01.764Z,7.58
2023-02-11T11:21:39.949Z,7.53
2023-02-11T11:23:20.317Z,7.56
2023-02-11T11:24:57.198Z,7.57
2023-02-11T11:26:30.090Z,7.58
2023-02-11T11:27:56.105Z,7.61
2023-02-11T11:29:24.827Z,7.58
2023-02-11T11:30:52.415Z,7.54
2023-02-11T11:32:27.836Z,7.65
2023-02-11T11:33:57.338Z,7.71
2023-02-11T11:35:33.019Z,7.73
2023-02-11T11:36:58.868Z,7.90
2023-02-11T11:38:24.621Z,7.96
2023-02-11T11:40:01.947Z,8.05
2023-02-11T11:41:34.605Z,8.09
2023-02-11T11:43:25.545Z,8.19
2023-02-11T11:45:04.900Z,8.31
2023-02-11T11:46:49.318Z,8.42
2023-02-11T11:48:35.624Z,8.56
2023-02-11T11:50:21.258Z,8.57
2023-02-11T11:52:16.394Z,8.58
2023-02-11T11:53:48.643Z,8.50
2023-02-11T11:55:51.018Z,8.50
2023-02-11T11:57:38.947Z,8.39
2023-02-11T11:59:19.939Z,8.41
2023-02-11T12:01:11.534Z,8.38
2023-02-11T12:03:08.390Z,8.33
2023-02-11T12:05:05.886Z,8.39
2023-02-11T12:06:47.330Z,8.32
2023-02-11T12:08:33.714Z,8.35
2023-02-11T12:10:28.098Z,8.25
2023-02-11T12:12:34.454Z,8.25
2023-02-11T12:14:26.677Z,8.30
2023-02-11T12:18:50.984Z,8.18
2023-02-11T12:20:53.057Z,8.09
2023-02-11T12:25:52.455Z,8.17
2023-02-11T12:27:54.539Z,8.35
2023-02-11T12:29:44.461Z,8.49
2023-02-11T12:31:53.084Z,8.61
2023-02-11T12:34:24.171Z,8.61
2023-02-11T12:36:13.176Z,8.63
2023-02-11T12:38:29.093Z,8.78
2023-02-11T12:40:14.075Z,8.75
2023-02-11T12:44:01.428Z,8.77
2023-02-11T12:45:44.134Z,8.72
2023-02-11T12:47:31.517Z,8.74
2023-02-11T12:49:34.991Z,8.76
2023-02-11T12:54:14.458Z,8.53
2023-02-11T12:56:01.521Z,8.50
2023-02-11T12:57:32.803Z,8.44
2023-02-11T12:59:02.946Z,8.34
2023-02-11T13:01:39.439Z,8.29
2023-02-11T13:04:02.565Z,8.15
2023-02-11T13:06:16.894Z,8.11
2023-02-11T13:07:49.899Z,8.10
2023-02-11T13:09:45.185Z,8.10
2023-02-11T13:11:31.382Z,8.08
2023-02-11T13:13:15.685Z,8.08
2023-02-11T13:14:50.741Z,8.08
2023-02-11T13:18:25.586Z,8.08
2023-02-11T13:19:57.355Z,8.11
2023-02-11T13:21:53.012Z,8.10
2023-02-11T13:23:26.318Z,8.10
2023-02-11T13:24:59.806Z,8.09
2023-02-11T13:26:36.096Z,8.14
2023-02-11T13:28:22.397Z,8.12
2023-02-11T13:30:26.236Z,8.10
2023-02-11T13:32:01.437Z,8.10
2023-02-11T13:33:40.010Z,8.11
2023-02-11T13:35:24.784Z,8.05
2023-02-11T13:37:31.904Z,7.99
2023-02-11T13:39:03.977Z,8.04
2023-02-11T13:40:27.554Z,8.02
2023-02-11T13:42:06.484Z,8.05
2023-02-11T13:43:40.773Z,8.08
2023-02-11T13:45:34.725Z,8.02
2023-02-11T13:47:03.571Z,8.08
2023-02-11T13:48:32.267Z,8.03
2023-02-11T13:49:59.440Z,8.10
2023-02-11T13:51:46.584Z,8.00
2023-02-11T13:53:46.173Z,7.98
2023-02-11T13:55:28.793Z,8.01
2023-02-11T13:57:21.761Z,8.00
2023-02-11T13:59:06.224Z,7.91
2023-02-11T14:00:52.911Z,7.92
2023-02-11T14:02:48.418Z,7.86
2023-02-11T14:07:33.413Z,7.75
2023-02-11T14:09:40.081Z,7.71
2023-02-11T14:11:22.833Z,7.71
2023-02-11T14:13:07.893Z,7.68
2023-02-11T14:15:16.748Z,7.61
2023-02-11T14:17:23.619Z,7.64
2023-02-11T14:19:08.140Z,7.61
2023-02-11T14:20:53.643Z,7.57
2023-02-11T14:22:26.896Z,7.51
2023-02-11T14:24:27.618Z,7.57
2023-02-11T14:26:19.835Z,7.53
2023-02-11T14:27:55.877Z,7.46
2023-02-11T14:29:30.582Z,7.46
2023-02-11T14:31:05.428Z,7.42
2023-02-11T14:32:41.212Z,7.44
2023-02-11T14:34:56.313Z,7.47
2023-02-11T14:36:52.317Z,7.39
2023-02-11T14:38:31.115Z,7.43
2023-02-11T14:40:10.292Z,7.39
2023-02-11T14:41:44.540Z,7.32
2023-02-11T14:43:16.099Z,7.33
2023-02-11T14:44:40.474Z,7.29
2023-02-11T14:46:28.210Z,7.29
2023-02-11T14:48:12.719Z,7.24
2023-02-11T14:49:38.041Z,7.23
2023-02-11T14:51:04.767Z,7.24
2023-02-11T14:52:31.569Z,7.27
2023-02-11T14:53:58.176Z,7.22
2023-02-11T14:55:36.092Z,7.17
2023-02-11T14:57:25.436Z,7.19
2023-02-11T14:59:05.458Z,7.14
2023-02-11T15:00:36.012Z,7.04
2023-02-11T15:02:05.162Z,7.07
2023-02-11T15:03:36.960Z,7.00
2023-02-11T15:05:28.464Z,6.99
2023-02-11T15:06:55.155Z,6.95
2023-02-11T15:08:18.545Z,6.95
2023-02-11T15:09:51.217Z,6.92
2023-02-11T15:11:28.251Z,6.89
2023-02-11T15:13:03.317Z,6.84
2023-02-11T15:14:33.707Z,6.74
2023-02-11T15:16:02.842Z,6.78
2023-02-11T15:17:28.950Z,6.75
2023-02-11T15:19:00.474Z,6.70
2023-02-11T15:20:30.923Z,6.71
2023-02-11T15:21:54.978Z,6.64
2023-02-11T15:23:26.068Z,6.60
2023-02-11T15:25:03.747Z,6.59
2023-02-11T15:26:27.558Z,6.60
2023-02-11T15:28:25.646Z,6.54
2023-02-11T15:30:06.877Z,6.45
2023-02-11T15:31:49.273Z,6.44
2023-02-11T15:33:28.601Z,6.42
2023-02-11T15:35:00.226Z,6.42
2023-02-11T15:36:35.534Z,6.41
2023-02-11T15:38:07.698Z,6.33
2023-02-11T15:39:44.558Z,6.41
2023-02-11T15:41:11.809Z,6.34
2023-02-11T15:42:52.150Z,6.35
2023-02-11T15:44:44.010Z,6.25
2023-02-11T15:46:16.701Z,6.28
2023-02-11T15:47:50.261Z,6.25
2023-02-11T15:49:21.760Z,6.19
2023-02-11T15:50:58.684Z,6.25
2023-02-11T15:52:29.696Z,6.22
2023-02-11T15:54:01.824Z,6.15
2023-02-11T15:55:25.798Z,6.20
2023-02-11T15:56:51.414Z,6.13
2023-02-11T15:58:55.016Z,6.16
2023-02-11T16:00:26.500Z,6.17
2023-02-11T16:01:56.218Z,6.15
2023-02-11T16:03:23.797Z,6.13
2023-02-11T16:04:54.938Z,6.11
2023-02-11T16:06:29.916Z,6.12
2023-02-11T16:07:56.590Z,6.13
2023-02-11T16:09:36.999Z,6.07
2023-02-11T16:11:03.522Z,6.15
2023-02-11T16:12:36.167Z,6.13
2023-02-11T16:14:00.356Z,6.07
2023-02-11T16:15:51.076Z,6.10
2023-02-11T16:17:30.956Z,6.13
2023-02-11T16:19:30.580Z,6.12
2023-02-11T16:21:05.630Z,6.09
2023-02-11T16:22:35.685Z,6.09
2023-02-11T16:24:02.592Z,6.08
2023-02-11T16:25:36.158Z,6.10
2023-02-11T16:27:08.374Z,6.10
2023-02-11T16:28:33.863Z,6.13
2023-02-11T16:30:09.333Z,6.13
2023-02-11T16:31:53.639Z,6.06
2023-02-11T16:33:21.643Z,6.15
2023-02-11T16:34:46.104Z,6.15
2023-02-11T16:36:16.599Z,6.15
2023-02-11T16:38:05.562Z,6.15
2023-02-11T16:39:39.420Z,6.09
2023-02-11T16:41:10.349Z,6.16
2023-02-11T16:42:40.572Z,6.17
2023-02-11T16:44:05.266Z,6.13
2023-02-11T16:45:33.842Z,6.15
2023-02-11T16:47:10.606Z,6.16
2023-02-11T16:48:37.542Z,6.12
2023-02-11T16:50:14.726Z,6.11
2023-02-11T16:51:45.600Z,6.16
2023-02-11T16:53:27.952Z,6.21
2023-02-11T16:55:13.283Z,6.17
2023-02-11T16:56:43.870Z,6.18
2023-02-11T16:58:11.511Z,6.23
2023-02-11T16:59:37.328Z,6.21
2023-02-11T17:01:25.531Z,6.16
2023-02-11T17:02:56.053Z,6.14
2023-02-11T17:04:36.213Z,6.15
2023-02-11T17:06:04.571Z,6.19
2023-02-11T17:07:43.894Z,6.20
2023-02-11T17:09:21.799Z,6.16
2023-02-11T17:10:50.119Z,6.19
2023-02-11T17:12:42.135Z,6.22
2023-02-11T17:14:18.550Z,6.19
2023-02-11T17:16:46.383Z,6.24
2023-02-11T17:18:41.017Z,6.20
2023-02-11T17:20:20.752Z,6.20
2023-02-11T17:21:52.563Z,6.19
2023-02-11T17:23:21.184Z,6.25
2023-02-11T17:25:08.904Z,6.17
2023-02-11T17:26:48.007Z,6.22
2023-02-11T17:28:19.240Z,6.25
2023-02-11T17:29:50.178Z,6.25
2023-02-11T17:31:33.880Z,6.25
2023-02-11T17:33:02.881Z,6.20
2023-02-11T17:35:01.394Z,6.23
2023-02-11T17:38:18.126Z,6.24
2023-02-11T17:42:50.611Z,6.27
2023-02-11T17:44:15.570Z,6.28
2023-02-11T17:45:46.785Z,6.24
2023-02-11T17:47:12.888Z,6.26
2023-02-11T17:48:36.202Z,6.23
2023-02-11T17:50:04.641Z,6.22
2023-02-11T17:53:32.247Z,6.23
2023-02-11T17:55:47.642Z,6.31
2023-02-11T17:57:21.551Z,6.24
2023-02-11T17:58:50.172Z,6.28
2023-02-11T18:00:21.776Z,6.31
2023-02-11T18:02:00.196Z,6.23
2023-02-11T18:03:32.294Z,6.26
2023-02-11T18:05:02.590Z,6.32
2023-02-11T18:06:38.770Z,6.33
2023-02-11T18:14:21.428Z,6.28
2023-02-11T18:16:20.478Z,6.29
2023-02-11T18:35:18.849Z,6.21
2023-02-11T18:37:22.069Z,6.16
2023-02-11T18:39:41.777Z,6.17
2023-02-11T18:42:53.087Z,6.11
2023-02-11T18:44:52.265Z,6.04
2023-02-11T18:55:12.271Z,5.98
2023-02-11T18:57:16.029Z,5.98
2023-02-11T19:00:10.810Z,5.99
2023-02-11T19:01:15.081Z,6.04
2023-02-11T19:02:50.909Z,6.02
2023-02-11T19:04:32.867Z,6.00
2023-02-11T19:06:55.643Z,6.01
2023-02-11T19:09:07.329Z,5.99
2023-02-11T19:12:38.455Z,6.00
2023-02-11T19:14:14.172Z,6.08
2023-02-11T19:17:36.825Z,5.99
2023-02-11T19:23:14.245Z,6.01
2023-02-11T19:25:11.482Z,5.99
2023-02-11T19:27:22.119Z,5.99
2023-02-11T19:29:08.074Z,6.04
2023-02-11T19:31:32.645Z,6.02
2023-02-11T19:34:09.125Z,6.00
2023-02-11T19:36:59.688Z,6.04
2023-02-11T19:38:42.284Z,6.09
2023-02-11T19:40:27.468Z,6.07
2023-02-11T19:49:36.545Z,6.04
2023-02-11T19:52:16.638Z,6.02
2023-02-11T19:58:32.219Z,6.10
2023-02-11T20:00:31.395Z,6.12
2023-02-11T20:06:57.029Z,6.02
2023-02-11T20:09:29.984Z,6.05
2023-02-11T20:11:57.766Z,6.00
2023-02-11T20:13:38.330Z,6.03
2023-02-11T20:18:42.553Z,6.11
2023-02-11T20:20:06.006Z,6.08
2023-02-11T20:21:35.975Z,6.09
2023-02-11T20:23:10.053Z,6.13
2023-02-11T20:24:35.951Z,6.11
2023-02-11T20:25:57.634Z,6.08
2023-02-11T20:28:09.769Z,6.15
2023-02-11T20:29:34.884Z,6.16
2023-02-11T20:31:03.534Z,6.17
2023-02-11T20:32:32.827Z,6.18
2023-02-11T20:33:56.658Z,6.12
2023-02-11T20:35:20.868Z,6.20
2023-02-11T20:36:53.060Z,6.22
2023-02-11T20:38:16.523Z,6.26
2023-02-11T20:39:44.159Z,6.25
2023-02-11T20:41:14.130Z,6.28
2023-02-11T20:42:49.009Z,6.26
2023-02-11T20:44:13.972Z,6.22
2023-02-11T20:45:43.182Z,6.32
2023-02-11T20:47:26.739Z,6.32
2023-02-11T20:49:09.921Z,6.26
2023-02-11T20:50:37.026Z,6.30
2023-02-11T20:52:05.178Z,6.32
2023-02-11T20:53:27.475Z,6.32
2023-02-11T20:54:59.350Z,6.37
2023-02-11T20:56:35.356Z,6.36
2023-02-11T20:58:03.626Z,6.40
2023-02-11T20:59:26.679Z,6.33
2023-02-11T21:00:52.265Z,6.42
2023-02-11T21:02:16.648Z,6.38
2023-02-11T21:03:49.278Z,6.43
2023-02-11T21:05:49.265Z,6.38
2023-02-11T21:07:33.418Z,6.43
2023-02-11T21:12:39.256Z,6.42
2023-02-11T21:14:28.368Z,6.41
2023-02-11T21:15:58.095Z,6.46
2023-02-11T21:17:35.175Z,6.42
2023-02-11T21:19:12.998Z,6.45
2023-02-11T21:21:23.958Z,6.42
2023-02-11T21:23:54.620Z,6.38
2023-02-11T21:25:48.643Z,6.37
2023-02-11T21:27:12.624Z,6.45
2023-02-11T21:28:42.236Z,6.39
2023-02-11T21:30:10.828Z,6.45
2023-02-11T21:31:42.449Z,6.45
2023-02-11T21:33:05.794Z,6.50
2023-02-11T21:34:52.893Z,6.45
2023-02-11T21:36:31.610Z,6.47
2023-02-11T21:38:01.906Z,6.46
2023-02-11T21:39:51.130Z,6.43
2023-02-11T21:42:13.856Z,6.43
2023-02-11T21:43:48.064Z,6.44
2023-02-11T21:45:15.569Z,6.51
2023-02-11T21:47:01.847Z,6.50
2023-02-11T21:50:10.894Z,6.45
2023-02-11T21:51:44.688Z,6.51
2023-02-11T21:53:29.917Z,6.46
2023-02-11T21:55:26.126Z,6.49
2023-02-11T21:56:41.867Z,6.44
2023-02-11T21:58:22.686Z,6.52
2023-02-11T22:00:16.390Z,6.49
2023-02-11T22:01:45.747Z,6.51
2023-02-11T22:03:14.951Z,6.52
2023-02-11T22:04:38.950Z,6.49
2023-02-11T22:06:53.050Z,6.46
2023-02-11T22:08:19.788Z,6.46
2023-02-11T22:09:44.838Z,6.54
2023-02-11T22:11:26.526Z,6.52
2023-02-11T22:12:52.300Z,6.56
2023-02-11T22:14:21.692Z,6.52
2023-02-11T22:15:50.137Z,6.49
2023-02-11T22:17:24.915Z,6.50
2023-02-11T22:21:41.675Z,6.53
2023-02-11T22:23:16.445Z,6.49
2023-02-11T22:24:51.374Z,6.56
2023-02-11T22:26:44.536Z,6.52
2023-02-11T22:28:12.901Z,6.49
2023-02-11T22:29:52.618Z,6.47
2023-02-11T22:31:29.460Z,6.46
2023-02-11T22:33:11.178Z,6.47
2023-02-11T22:34:48.217Z,6.51
2023-02-11T22:36:31.930Z,6.56
2023-02-11T22:38:10.234Z,6.57
2023-02-11T22:39:54.784Z,6.52
2023-02-11T22:41:27.280Z,6.54
2023-02-11T22:42:50.176Z,6.58
2023-02-11T22:44:27.916Z,6.56
2023-02-11T22:45:53.769Z,6.51
2023-02-11T22:47:42.394Z,6.59
2023-02-11T22:49:17.920Z,6.55
2023-02-11T22:51:22.877Z,6.52
2023-02-11T22:53:01.458Z,6.59
2023-02-11T22:54:29.689Z,6.51
2023-02-11T22:55:59.849Z,6.53
2023-02-11T22:57:27.249Z,6.55
2023-02-11T22:59:01.318Z,6.61
2023-02-11T23:00:28.989Z,6.52
2023-02-11T23:01:57.721Z,6.51
2023-02-11T23:03:26.389Z,6.59
2023-02-11T23:04:51.106Z,6.59
2023-02-11T23:06:19.852Z,6.59
2023-02-11T23:07:58.622Z,6.53
2023-02-11T23:09:32.366Z,6.55
2023-02-11T23:11:11.001Z,6.55
2023-02-11T23:12:44.013Z,6.62
2023-02-11T23:14:16.342Z,6.54
2023-02-11T23:15:43.298Z,6.59
2023-02-11T23:17:08.350Z,6.56
2023-02-11T23:18:30.439Z,6.62
2023-02-11T23:19:58.432Z,6.54
2023-02-11T23:21:26.705Z,6.58